Terminal Aerodrome Forecast
Issued by NWS Quad Cities IA IL

Home | Current Version | Previous Version | Text Only | Print | Product List | Glossary On
Versions: 1 2 3 4 5 6 7 8 9 10 11 12 13 14 15 16 17
000
FTUS43 KDVN 281700
TAFMLI
TAF
KMLI 281720Z 2818/2918 28016G25KT P6SM SCT040
     FM290000 26009KT P6SM SKC=

USA.gov is the U.S. government's official web portal to all federal, state and local government web resources and services.